createdAt,value
2023-01-20T00:01:38.446Z,12.05
2023-01-20T00:04:06.818Z,13.38
2023-01-20T00:06:33.779Z,17.48
2023-01-20T00:09:03.598Z,14.07
2023-01-20T00:11:31.399Z,17.48
2023-01-20T00:14:01.640Z,14.65
2023-01-20T00:16:29.797Z,13.95
2023-01-20T00:18:56.747Z,13.45
2023-01-20T00:21:23.943Z,14.18
2023-01-20T00:23:50.999Z,15.75
2023-01-20T00:26:22.323Z,14.00
2023-01-20T00:28:53.874Z,16.45
2023-01-20T00:31:25.036Z,14.63
2023-01-20T00:33:54.757Z,12.05
2023-01-20T00:36:23.995Z,10.85
2023-01-20T00:38:51.481Z,14.38
2023-01-20T00:41:19.357Z,12.40
2023-01-20T00:43:46.646Z,12.50
2023-01-20T00:46:14.433Z,12.43
2023-01-20T00:48:41.998Z,13.88
2023-01-20T00:51:10.974Z,15.93
2023-01-20T00:53:38.021Z,16.13
2023-01-20T00:56:06.219Z,13.50
2023-01-20T00:58:33.297Z,13.02
2023-01-20T01:01:01.032Z,14.48
2023-01-20T01:03:28.899Z,14.77
2023-01-20T01:06:07.333Z,13.82
2023-01-20T01:08:35.345Z,13.68
2023-01-20T01:11:03.119Z,12.65
2023-01-20T01:13:30.062Z,12.88
2023-01-20T01:15:57.152Z,12.13
2023-01-20T01:18:24.180Z,13.73
2023-01-20T01:20:51.283Z,13.18
2023-01-20T01:23:18.523Z,12.63
2023-01-20T01:25:45.386Z,15.25
2023-01-20T01:28:12.409Z,15.45
2023-01-20T01:30:39.425Z,13.27
2023-01-20T01:33:06.326Z,13.70
2023-01-20T01:35:33.182Z,14.77
2023-01-20T01:38:00.123Z,13.15
2023-01-20T01:40:27.110Z,16.38
2023-01-20T01:42:53.984Z,13.88
2023-01-20T01:45:25.196Z,14.65
2023-01-20T01:48:10.179Z,15.73
2023-01-20T01:50:53.047Z,13.82
2023-01-20T01:53:20.950Z,17.00
2023-01-20T01:55:54.133Z,17.77
2023-01-20T01:58:28.826Z,17.60
2023-01-20T02:00:56.026Z,17.65
2023-01-20T02:03:23.808Z,18.92
2023-01-20T02:05:53.361Z,24.65
2023-01-20T02:08:20.565Z,21.27
2023-01-20T02:10:47.448Z,17.75
2023-01-20T02:13:14.537Z,20.20
2023-01-20T02:16:48.316Z,19.38
2023-01-20T02:20:01.529Z,24.15
2023-01-20T02:22:56.261Z,18.30
2023-01-20T02:25:31.971Z,18.23
2023-01-20T02:28:47.401Z,19.73
2023-01-20T02:31:31.667Z,21.92
2023-01-20T02:34:26.283Z,21.40
2023-01-20T02:37:14.164Z,20.08
2023-01-20T02:39:49.788Z,14.93
2023-01-20T02:42:47.110Z,19.33
2023-01-20T02:45:25.501Z,17.80
2023-01-20T02:48:27.710Z,21.92
2023-01-20T02:51:02.141Z,19.15
2023-01-20T02:53:40.527Z,17.97
2023-01-20T02:56:09.990Z,21.30
2023-01-20T02:58:51.580Z,20.50
2023-01-20T03:01:36.310Z,22.52
2023-01-20T03:04:06.588Z,26.53
2023-01-20T03:06:40.508Z,18.33
2023-01-20T03:09:13.200Z,19.95
2023-01-20T03:11:53.163Z,19.60
2023-01-20T03:14:20.247Z,20.83
2023-01-20T03:16:48.843Z,20.27
2023-01-20T03:19:20.268Z,26.00
2023-01-20T03:21:48.830Z,23.23
2023-01-20T03:24:16.054Z,21.83
2023-01-20T03:26:43.076Z,20.20
2023-01-20T03:29:11.726Z,19.88
2023-01-20T03:31:51.800Z,20.00
2023-01-20T03:34:23.562Z,19.75
2023-01-20T03:36:52.981Z,20.95
2023-01-20T03:39:20.914Z,20.85
2023-01-20T03:42:09.083Z,27.70
2023-01-20T03:45:14.466Z,24.23
2023-01-20T03:48:23.436Z,24.13
2023-01-20T03:51:14.384Z,25.60
2023-01-20T03:53:54.149Z,28.60
2023-01-20T03:56:30.078Z,24.20
2023-01-20T03:59:01.164Z,24.60
2023-01-20T04:01:36.384Z,28.13
2023-01-20T04:06:34.300Z,27.50
2023-01-20T04:09:12.790Z,28.35
2023-01-20T04:11:39.938Z,30.33
2023-01-20T04:14:09.833Z,24.98
2023-01-20T04:16:37.626Z,30.88
2023-01-20T04:19:04.756Z,25.35
2023-01-20T04:21:35.948Z,27.45
2023-01-20T04:24:34.691Z,29.10
2023-01-20T04:27:01.597Z,25.52
2023-01-20T04:29:28.502Z,26.63
2023-01-20T04:32:03.571Z,26.40
2023-01-20T04:34:30.616Z,25.25
2023-01-20T04:36:57.530Z,28.25
2023-01-20T04:39:24.508Z,22.67
2023-01-20T04:41:51.365Z,25.20
2023-01-20T04:44:18.262Z,23.88
2023-01-20T04:46:47.259Z,25.98
2023-01-20T04:49:14.971Z,23.63
2023-01-20T04:51:41.894Z,23.48
2023-01-20T04:54:08.833Z,26.45
2023-01-20T04:56:35.818Z,21.50
2023-01-20T04:59:02.734Z,22.27
2023-01-20T05:01:29.738Z,21.65
2023-01-20T05:03:56.693Z,23.80
2023-01-20T05:06:23.739Z,23.05
2023-01-20T05:08:50.624Z,27.25
2023-01-20T05:11:17.623Z,28.73
2023-01-20T05:13:44.519Z,29.17
2023-01-20T05:16:11.545Z,30.10
2023-01-20T05:18:38.574Z,24.85
2023-01-20T05:21:08.108Z,29.42
2023-01-20T05:23:35.577Z,27.48
2023-01-20T05:26:02.633Z,24.38
2023-01-20T05:28:29.617Z,24.25
2023-01-20T05:30:56.578Z,25.23
2023-01-20T05:33:23.631Z,26.10
2023-01-20T05:35:50.496Z,29.90
2023-01-20T05:38:17.389Z,28.25
2023-01-20T05:40:44.283Z,24.33
2023-01-20T05:43:12.932Z,23.77
2023-01-20T05:45:40.092Z,27.55
2023-01-20T05:48:06.929Z,30.50
2023-01-20T05:50:34.004Z,36.45
2023-01-20T05:53:00.913Z,28.48
2023-01-20T05:55:27.852Z,29.63
2023-01-20T05:57:54.742Z,27.08
2023-01-20T06:00:22.268Z,26.05
2023-01-20T06:02:49.182Z,30.55
2023-01-20T06:05:16.536Z,28.30
2023-01-20T06:07:43.746Z,28.05
2023-01-20T06:10:11.860Z,29.77
2023-01-20T06:12:38.759Z,31.23
2023-01-20T06:15:06.595Z,28.52
2023-01-20T06:17:33.813Z,30.83
2023-01-20T06:20:00.719Z,29.60
2023-01-20T06:22:28.124Z,28.80
2023-01-20T06:24:55.008Z,28.40
2023-01-20T06:27:21.948Z,27.45
2023-01-20T06:29:50.784Z,30.05
2023-01-20T06:32:18.627Z,28.00
2023-01-20T06:34:46.065Z,29.83
2023-01-20T06:37:12.991Z,35.35
2023-01-20T06:39:40.370Z,31.45
2023-01-20T06:42:07.577Z,41.60
2023-01-20T06:44:35.622Z,36.50
2023-01-20T06:47:08.036Z,34.92
2023-01-20T06:49:35.653Z,37.65
2023-01-20T06:52:02.657Z,35.25
2023-01-20T06:54:29.673Z,38.58
2023-01-20T06:56:56.589Z,37.00
2023-01-20T06:59:23.532Z,32.67
2023-01-20T07:01:50.676Z,34.08
2023-01-20T07:04:17.712Z,36.10
2023-01-20T07:06:44.782Z,35.45
2023-01-20T07:09:13.268Z,35.05
2023-01-20T07:11:41.024Z,32.42
2023-01-20T07:14:10.023Z,34.50
2023-01-20T07:16:37.308Z,38.00
2023-01-20T07:19:05.457Z,36.65
2023-01-20T07:21:32.604Z,31.98
2023-01-20T07:24:03.132Z,36.58
2023-01-20T07:26:30.761Z,37.75
2023-01-20T07:29:00.907Z,41.92
2023-01-20T07:31:29.382Z,30.88
2023-01-20T07:33:56.996Z,38.13
2023-01-20T07:36:25.051Z,35.72
2023-01-20T07:38:53.339Z,35.80
2023-01-20T07:41:21.139Z,37.78
2023-01-20T07:43:51.575Z,32.30
2023-01-20T07:46:19.961Z,40.53
2023-01-20T07:48:47.118Z,39.42
2023-01-20T07:51:16.426Z,33.45
2023-01-20T07:53:50.875Z,36.47
2023-01-20T07:56:28.109Z,37.78
2023-01-20T07:59:01.612Z,38.90
2023-01-20T08:01:32.683Z,34.20
2023-01-20T08:04:00.666Z,37.17
2023-01-20T08:06:28.229Z,41.33
2023-01-20T08:08:58.875Z,42.30
2023-01-20T08:11:25.996Z,34.05
2023-01-20T08:13:53.748Z,37.70
2023-01-20T08:16:28.015Z,33.25
2023-01-20T08:18:55.246Z,43.37
2023-01-20T08:21:31.974Z,43.33
2023-01-20T08:24:05.313Z,37.33
2023-01-20T08:26:34.070Z,44.20
2023-01-20T08:29:33.679Z,40.22
2023-01-20T08:32:01.238Z,45.13
2023-01-20T08:34:29.055Z,35.03
2023-01-20T08:36:57.492Z,34.97
2023-01-20T08:39:24.469Z,35.60
2023-01-20T08:41:51.712Z,36.08
2023-01-20T08:44:20.569Z,34.40
2023-01-20T08:46:54.142Z,37.72
2023-01-20T08:49:24.534Z,39.25
2023-01-20T08:51:57.698Z,35.20
2023-01-20T08:54:34.368Z,36.97
2023-01-20T08:57:01.561Z,35.75
2023-01-20T08:59:31.338Z,41.72
2023-01-20T09:02:00.218Z,40.58
2023-01-20T09:04:30.882Z,38.33
2023-01-20T09:06:57.921Z,35.08
2023-01-20T09:09:29.117Z,36.15
2023-01-20T09:11:58.502Z,35.70
2023-01-20T09:14:26.017Z,29.92
2023-01-20T09:16:53.294Z,36.92
2023-01-20T09:19:20.230Z,30.88
2023-01-20T09:21:47.150Z,36.35
2023-01-20T09:24:14.314Z,42.50
2023-01-20T09:26:41.570Z,30.90
2023-01-20T09:29:13.527Z,44.22
2023-01-20T09:31:45.155Z,33.15
2023-01-20T09:34:27.457Z,37.22
2023-01-20T09:36:57.984Z,35.95
2023-01-20T09:39:43.553Z,36.47
2023-01-20T09:42:56.779Z,33.90
2023-01-20T09:45:45.929Z,35.20
2023-01-20T09:49:22.548Z,34.75
2023-01-20T09:52:44.913Z,36.42
2023-01-20T09:55:29.428Z,40.63
2023-01-20T09:58:08.831Z,37.47
2023-01-20T10:00:39.495Z,33.55
2023-01-20T10:03:21.001Z,36.47
2023-01-20T10:05:53.087Z,34.28
2023-01-20T10:09:04.258Z,42.08
2023-01-20T10:11:40.221Z,35.53
2023-01-20T10:14:20.497Z,45.80
2023-01-20T10:17:35.659Z,44.25
2023-01-20T10:20:15.562Z,42.08
2023-01-20T10:22:57.421Z,36.45
2023-01-20T10:25:30.326Z,36.78
2023-01-20T10:28:07.147Z,37.72
2023-01-20T10:30:38.325Z,39.60
2023-01-20T10:33:14.998Z,41.25
2023-01-20T10:35:55.763Z,43.65
2023-01-20T10:39:13.171Z,41.88
2023-01-20T10:41:50.367Z,35.63
2023-01-20T10:44:17.360Z,37.10
2023-01-20T10:47:06.785Z,42.58
2023-01-20T10:50:06.127Z,37.53
2023-01-20T10:52:53.137Z,36.00
2023-01-20T10:55:45.848Z,33.15
2023-01-20T10:58:18.616Z,43.45
2023-01-20T11:00:45.547Z,41.33
2023-01-20T11:03:23.461Z,39.88
2023-01-20T11:05:53.029Z,42.58
2023-01-20T11:08:34.688Z,36.60
2023-01-20T11:11:27.553Z,41.05
2023-01-20T11:13:58.343Z,41.65
2023-01-20T11:17:31.567Z,39.78
2023-01-20T11:20:21.874Z,46.22
2023-01-20T11:22:50.822Z,43.67
2023-01-20T11:25:27.832Z,45.13
2023-01-20T11:27:59.076Z,43.50
2023-01-20T11:30:32.223Z,37.83
2023-01-20T11:33:28.152Z,38.80
2023-01-20T11:38:41.815Z,46.50
2023-01-20T11:41:24.651Z,46.25
2023-01-20T11:43:58.437Z,51.45
2023-01-20T11:46:27.697Z,50.60
2023-01-20T11:49:26.979Z,45.45
2023-01-20T11:51:57.306Z,48.55
2023-01-20T11:54:29.960Z,49.17
2023-01-20T11:57:07.616Z,41.97
2023-01-20T11:59:46.024Z,41.42
2023-01-20T12:02:12.936Z,46.47
2023-01-20T12:05:05.609Z,45.83
2023-01-20T12:07:46.133Z,50.75
2023-01-20T12:10:34.990Z,44.15
2023-01-20T12:13:19.843Z,42.22
2023-01-20T12:15:54.567Z,45.27
2023-01-20T12:18:56.894Z,52.10
2023-01-20T12:21:36.592Z,45.25
2023-01-20T12:25:05.799Z,46.75
2023-01-20T12:27:35.477Z,66.18
2023-01-20T12:30:22.720Z,42.92
2023-01-20T12:32:50.891Z,47.15
2023-01-20T12:35:18.609Z,50.65
2023-01-20T12:38:07.351Z,48.00
2023-01-20T12:40:51.941Z,48.67
2023-01-20T12:43:45.064Z,50.05
2023-01-20T12:46:47.794Z,46.60
2023-01-20T12:49:26.479Z,49.13
2023-01-20T12:52:24.195Z,47.92
2023-01-20T12:55:17.348Z,48.85
2023-01-20T12:58:14.742Z,47.50
2023-01-20T13:01:13.910Z,46.97
2023-01-20T13:04:17.837Z,46.45
2023-01-20T13:07:11.695Z,53.15
2023-01-20T13:10:13.449Z,46.80
2023-01-20T13:13:17.681Z,44.03
2023-01-20T13:16:06.827Z,51.83
2023-01-20T13:19:15.575Z,50.13
2023-01-20T13:21:42.948Z,46.67
2023-01-20T13:24:24.297Z,49.17
2023-01-20T13:26:52.214Z,47.03
2023-01-20T13:29:37.516Z,50.28
2023-01-20T13:32:26.598Z,53.55
2023-01-20T13:34:53.836Z,48.40
2023-01-20T13:38:01.156Z,48.38
2023-01-20T13:40:37.347Z,45.95
2023-01-20T13:43:25.332Z,47.55
2023-01-20T13:46:14.965Z,44.88
2023-01-20T13:49:12.431Z,52.70
2023-01-20T13:51:42.902Z,49.58
2023-01-20T13:54:25.161Z,50.70
2023-01-20T13:56:52.802Z,53.70
2023-01-20T13:59:19.875Z,44.35
2023-01-20T14:01:46.820Z,48.28
2023-01-20T14:04:21.803Z,46.45
2023-01-20T14:06:52.166Z,45.20
2023-01-20T14:09:26.032Z,45.35
2023-01-20T14:11:56.771Z,46.13
2023-01-20T14:14:27.483Z,45.17
2023-01-20T14:16:56.446Z,46.75
2023-01-20T14:19:34.989Z,48.83
2023-01-20T14:22:18.251Z,46.50
2023-01-20T14:24:48.572Z,43.28
2023-01-20T14:27:29.479Z,50.63
2023-01-20T14:30:12.355Z,45.83
2023-01-20T14:32:39.565Z,43.83
2023-01-20T14:35:17.794Z,48.22
2023-01-20T14:37:51.600Z,44.60
2023-01-20T14:40:28.425Z,48.50
2023-01-20T14:43:00.731Z,46.88
2023-01-20T14:45:32.413Z,47.33
2023-01-20T14:48:02.631Z,45.15
2023-01-20T14:50:30.144Z,42.08
2023-01-20T14:52:57.074Z,49.78
2023-01-20T14:55:31.980Z,46.88
2023-01-20T14:58:00.330Z,46.45
2023-01-20T15:00:46.735Z,47.65
2023-01-20T15:03:28.230Z,51.00
2023-01-20T15:06:17.552Z,41.83
2023-01-20T15:09:05.231Z,43.92
2023-01-20T15:11:33.480Z,56.10
2023-01-20T15:14:00.765Z,53.42
2023-01-20T15:16:36.499Z,51.10
2023-01-20T15:19:32.100Z,56.58
2023-01-20T15:22:21.394Z,47.83
2023-01-20T15:24:49.948Z,50.63
2023-01-20T15:27:26.921Z,43.15
2023-01-20T15:30:16.284Z,50.75
2023-01-20T15:32:43.861Z,51.70
2023-01-20T15:35:16.511Z,49.42
2023-01-20T15:37:44.530Z,54.60
2023-01-20T15:40:22.370Z,50.10
2023-01-20T15:42:50.599Z,51.92
2023-01-20T15:45:19.370Z,53.72
2023-01-20T15:47:47.107Z,55.92
2023-01-20T15:50:21.847Z,53.63
2023-01-20T15:52:49.044Z,50.38
2023-01-20T15:55:20.741Z,52.47
2023-01-20T15:57:52.223Z,55.45
2023-01-20T16:00:22.628Z,51.70
2023-01-20T16:02:49.973Z,54.42
2023-01-20T16:05:17.832Z,56.35
2023-01-20T16:07:47.434Z,52.65
2023-01-20T16:10:19.283Z,57.28
2023-01-20T16:12:47.094Z,60.80
2023-01-20T16:15:17.590Z,49.88
2023-01-20T16:17:44.833Z,51.63
2023-01-20T16:20:22.604Z,50.50
2023-01-20T16:22:49.748Z,62.70
2023-01-20T16:25:17.312Z,59.13
2023-01-20T16:27:44.465Z,52.60
2023-01-20T16:30:23.351Z,50.20
2023-01-20T16:32:50.982Z,50.05
2023-01-20T16:35:20.346Z,53.60
2023-01-20T16:37:48.155Z,54.47
2023-01-20T16:40:20.153Z,45.35
2023-01-20T16:42:48.244Z,42.08
2023-01-20T16:45:29.350Z,44.08
2023-01-20T16:47:57.069Z,43.58
2023-01-20T16:50:26.020Z,38.05
2023-01-20T16:52:52.893Z,38.35
2023-01-20T16:55:20.222Z,37.63
2023-01-20T16:57:47.084Z,34.35
2023-01-20T17:00:18.234Z,40.85
2023-01-20T17:02:51.387Z,39.65
2023-01-20T17:05:22.379Z,38.25
2023-01-20T17:07:50.308Z,43.60
2023-01-20T17:10:19.061Z,60.65
2023-01-20T17:12:48.756Z,37.97
2023-01-20T17:15:16.425Z,36.92
2023-01-20T17:17:43.500Z,36.25
2023-01-20T17:20:11.275Z,45.60
2023-01-20T17:22:39.652Z,38.20
2023-01-20T17:25:09.617Z,41.63
2023-01-20T17:27:37.838Z,46.17
2023-01-20T17:30:08.086Z,39.67
2023-01-20T17:32:35.743Z,36.80
2023-01-20T17:35:03.216Z,39.38
2023-01-20T17:37:30.538Z,42.72
2023-01-20T17:39:57.592Z,38.50
2023-01-20T17:42:24.499Z,37.67
2023-01-20T17:44:51.353Z,39.75
2023-01-20T17:47:18.532Z,42.40
2023-01-20T17:49:45.446Z,45.35
2023-01-20T17:52:12.325Z,37.83
2023-01-20T17:54:39.379Z,39.88
2023-01-20T17:57:06.341Z,41.72
2023-01-20T17:59:33.488Z,43.10
2023-01-20T18:02:00.478Z,46.38
2023-01-20T18:04:28.247Z,54.97
2023-01-20T18:06:55.891Z,42.42
2023-01-20T18:09:22.751Z,44.17
2023-01-20T18:11:49.580Z,35.88
2023-01-20T18:14:16.542Z,42.40
2023-01-20T18:16:43.555Z,48.65
2023-01-20T18:19:14.004Z,48.75
2023-01-20T18:21:43.851Z,40.78
2023-01-20T18:24:11.959Z,45.38
2023-01-20T18:26:42.388Z,47.30
2023-01-20T18:29:15.068Z,43.70
2023-01-20T18:31:44.846Z,46.42
2023-01-20T18:34:15.730Z,46.03
2023-01-20T18:36:46.029Z,46.03
2023-01-20T18:39:18.164Z,45.40
2023-01-20T18:41:45.484Z,51.65
2023-01-20T18:44:12.629Z,47.05
2023-01-20T18:46:40.073Z,54.20
2023-01-20T18:49:09.684Z,50.28
2023-01-20T18:51:37.420Z,54.65
2023-01-20T18:54:10.389Z,49.25
2023-01-20T18:56:37.704Z,51.97
2023-01-20T18:59:06.597Z,55.55
2023-01-20T19:01:39.679Z,52.22
2023-01-20T19:04:11.819Z,51.08
2023-01-20T19:06:42.539Z,56.92
2023-01-20T19:09:10.635Z,43.08
2023-01-20T19:11:40.584Z,45.17
2023-01-20T19:14:11.707Z,49.30
2023-01-20T19:16:42.249Z,47.05
2023-01-20T19:19:13.780Z,52.65
2023-01-20T19:21:41.024Z,46.22
2023-01-20T19:24:11.848Z,44.50
2023-01-20T19:26:39.241Z,41.28
2023-01-20T19:29:11.771Z,43.50
2023-01-20T19:31:40.314Z,49.28
2023-01-20T19:34:09.190Z,44.28
2023-01-20T19:36:37.131Z,40.85
2023-01-20T19:39:05.437Z,39.13
2023-01-20T19:41:34.361Z,41.90
2023-01-20T19:44:04.751Z,45.30
2023-01-20T19:46:35.265Z,36.72
2023-01-20T19:49:02.626Z,43.08
2023-01-20T19:51:31.325Z,31.23
2023-01-20T19:54:01.120Z,41.42
2023-01-20T19:56:32.883Z,35.10
2023-01-20T19:59:02.510Z,36.83
2023-01-20T20:01:35.735Z,36.97
2023-01-20T20:04:09.487Z,35.60
2023-01-20T20:06:48.552Z,28.33
2023-01-20T20:09:23.375Z,33.55
2023-01-20T20:11:50.824Z,34.08
2023-01-20T20:14:21.332Z,29.10
2023-01-20T20:16:50.377Z,34.78
2023-01-20T20:19:20.348Z,29.63
2023-01-20T20:21:47.503Z,33.63
2023-01-20T20:24:16.861Z,33.03
2023-01-20T20:26:46.227Z,36.28
2023-01-20T20:29:16.170Z,36.25
2023-01-20T20:31:43.273Z,36.72
2023-01-20T20:34:17.484Z,43.47
2023-01-20T20:36:46.002Z,33.28
2023-01-20T20:39:16.431Z,38.05
2023-01-20T20:41:43.820Z,36.15
2023-01-20T20:44:11.580Z,42.78
2023-01-20T20:46:38.730Z,41.85
2023-01-20T20:49:05.782Z,40.70
2023-01-20T20:51:34.090Z,42.88
2023-01-20T20:54:03.113Z,40.45
2023-01-20T20:56:33.866Z,39.53
2023-01-20T20:59:03.435Z,41.97
2023-01-20T21:01:33.936Z,40.65
2023-01-20T21:04:03.312Z,46.17
2023-01-20T21:06:32.082Z,43.20
2023-01-20T21:08:59.903Z,54.33
2023-01-20T21:11:28.097Z,40.08
2023-01-20T21:13:55.533Z,43.17
2023-01-20T21:16:24.358Z,36.30
2023-01-20T21:18:55.985Z,42.15
2023-01-20T21:21:24.169Z,40.38
2023-01-20T21:23:54.138Z,45.15
2023-01-20T21:26:22.455Z,48.45
2023-01-20T21:28:49.625Z,41.45
2023-01-20T21:31:23.629Z,43.38
2023-01-20T21:33:58.493Z,46.53
2023-01-20T21:36:27.750Z,51.00
2023-01-20T21:38:55.097Z,46.88
2023-01-20T21:41:22.444Z,39.05
2023-01-20T21:44:08.728Z,45.72
2023-01-20T21:46:39.886Z,35.95
2023-01-20T21:49:27.404Z,41.97
2023-01-20T21:52:14.332Z,35.28
2023-01-20T21:54:41.975Z,38.78
2023-01-20T21:57:09.323Z,34.45
2023-01-20T21:59:36.466Z,40.70
2023-01-20T22:02:04.016Z,40.15
2023-01-20T22:04:31.818Z,36.28
2023-01-20T22:06:58.666Z,38.13
2023-01-20T22:09:25.580Z,46.15
2023-01-20T22:11:52.483Z,42.63
2023-01-20T22:14:19.376Z,41.67
2023-01-20T22:16:46.254Z,40.33
2023-01-20T22:19:14.327Z,34.05
2023-01-20T22:21:41.573Z,46.03
2023-01-20T22:24:09.570Z,43.63
2023-01-20T22:26:37.032Z,42.97
2023-01-20T22:29:04.426Z,44.40
2023-01-20T22:31:34.158Z,43.00
2023-01-20T22:34:04.444Z,45.15
2023-01-20T22:36:32.206Z,43.33
2023-01-20T22:38:59.565Z,37.78
2023-01-20T22:41:26.898Z,38.67
2023-01-20T22:43:55.350Z,33.03
2023-01-20T22:46:25.901Z,39.13
2023-01-20T22:48:55.253Z,41.45
2023-01-20T22:51:25.546Z,32.22
2023-01-20T22:53:58.077Z,34.88
2023-01-20T22:56:29.287Z,31.08
2023-01-20T22:58:58.146Z,31.63
2023-01-20T23:01:32.576Z,27.67
2023-01-20T23:04:03.339Z,31.75
2023-01-20T23:06:33.294Z,33.90
2023-01-20T23:09:08.140Z,29.48
2023-01-20T23:11:39.896Z,30.25
2023-01-20T23:14:09.375Z,27.15
2023-01-20T23:16:36.676Z,30.63
2023-01-20T23:19:04.072Z,30.60
2023-01-20T23:21:31.847Z,31.52
2023-01-20T23:23:59.140Z,29.95
2023-01-20T23:26:30.105Z,28.13
2023-01-20T23:28:57.439Z,33.40
2023-01-20T23:31:25.627Z,31.75
2023-01-20T23:33:54.373Z,30.85
2023-01-20T23:36:25.140Z,29.15
2023-01-20T23:38:56.191Z,32.65
2023-01-20T23:41:24.564Z,31.17
2023-01-20T23:43:52.261Z,28.02
2023-01-20T23:46:19.413Z,32.55
2023-01-20T23:48:47.386Z,35.40
2023-01-20T23:51:15.065Z,34.83
2023-01-20T23:53:42.069Z,29.48
2023-01-20T23:56:16.212Z,33.92
2023-01-20T23:58:44.176Z,30.98
